createdAt,value
2023-02-17T00:00:56.338Z,67.78
2023-02-17T00:01:58.836Z,74.45
2023-02-17T00:03:01.271Z,69.22
2023-02-17T00:04:03.841Z,69.13
2023-02-17T00:05:07.350Z,69.65
2023-02-17T00:06:11.134Z,73.07
2023-02-17T00:07:13.694Z,68.57
2023-02-17T00:08:16.160Z,67.40
2023-02-17T00:09:18.740Z,62.28
2023-02-17T00:10:21.490Z,66.35
2023-02-17T00:11:24.270Z,67.63
2023-02-17T00:12:27.089Z,68.30
2023-02-17T00:13:29.649Z,65.40
2023-02-17T00:14:32.352Z,72.50
2023-02-17T00:15:34.832Z,67.35
2023-02-17T00:16:37.218Z,73.43
2023-02-17T00:17:39.754Z,70.40
2023-02-17T00:18:42.344Z,74.70
2023-02-17T00:19:44.913Z,69.47
2023-02-17T00:20:47.470Z,68.97
2023-02-17T00:21:51.191Z,71.63
2023-02-17T00:22:53.645Z,70.40
2023-02-17T00:23:57.315Z,67.28
2023-02-17T00:24:59.768Z,65.95
2023-02-17T00:26:08.084Z,69.93
2023-02-17T00:27:10.846Z,70.07
2023-02-17T00:28:13.302Z,68.72
2023-02-17T00:29:16.315Z,71.70
2023-02-17T00:30:19.261Z,66.78
2023-02-17T00:31:23.807Z,66.80
2023-02-17T00:32:26.851Z,70.20
2023-02-17T00:33:29.368Z,68.82
2023-02-17T00:34:31.929Z,65.88
2023-02-17T00:35:34.585Z,70.65
2023-02-17T00:36:37.947Z,65.70
2023-02-17T00:37:40.554Z,65.95
2023-02-17T00:38:43.088Z,73.57
2023-02-17T00:39:45.793Z,69.32
2023-02-17T00:40:48.313Z,79.20
2023-02-17T00:41:50.843Z,69.60
2023-02-17T00:42:54.968Z,74.32
2023-02-17T00:43:57.909Z,67.00
2023-02-17T00:45:00.421Z,73.15
2023-02-17T00:46:04.418Z,65.75
2023-02-17T00:47:07.156Z,70.43
2023-02-17T00:48:10.808Z,64.95
2023-02-17T00:49:19.901Z,70.97
2023-02-17T00:50:22.813Z,69.57
2023-02-17T00:51:25.829Z,58.85
2023-02-17T00:52:28.515Z,72.05
2023-02-17T00:53:31.002Z,71.28
2023-02-17T00:54:33.446Z,67.18
2023-02-17T00:55:35.965Z,69.18
2023-02-17T00:56:38.597Z,68.35
2023-02-17T00:57:41.189Z,77.25
2023-02-17T00:58:43.833Z,70.93
2023-02-17T00:59:46.336Z,68.78
2023-02-17T01:00:49.021Z,64.03
2023-02-17T01:01:51.553Z,65.45
2023-02-17T01:02:54.136Z,66.15
2023-02-17T01:03:56.611Z,65.07
2023-02-17T01:04:59.226Z,65.20
2023-02-17T01:06:09.289Z,69.35
2023-02-17T01:07:11.724Z,70.05
2023-02-17T01:08:16.675Z,65.22
2023-02-17T01:09:19.201Z,65.03
2023-02-17T01:10:23.965Z,67.72
2023-02-17T01:11:29.191Z,68.60
2023-02-17T01:12:33.865Z,69.15
2023-02-17T01:13:36.353Z,59.58
2023-02-17T01:14:38.935Z,67.38
2023-02-17T01:15:43.883Z,68.07
2023-02-17T01:16:49.290Z,68.00
2023-02-17T01:17:51.734Z,64.28
2023-02-17T01:18:57.150Z,66.20
2023-02-17T01:19:59.768Z,69.88
2023-02-17T01:21:02.308Z,68.35
2023-02-17T01:22:04.850Z,65.97
2023-02-17T01:23:08.776Z,72.65
2023-02-17T01:24:12.353Z,64.57
2023-02-17T01:25:14.968Z,62.85
2023-02-17T01:26:20.137Z,65.18
2023-02-17T01:27:22.649Z,64.78
2023-02-17T01:28:25.117Z,68.03
2023-02-17T01:29:28.223Z,69.05
2023-02-17T01:30:31.001Z,68.90
2023-02-17T01:31:33.985Z,70.60
2023-02-17T01:32:37.404Z,57.63
2023-02-17T01:33:40.713Z,68.45
2023-02-17T01:34:44.543Z,62.65
2023-02-17T01:35:47.033Z,65.75
2023-02-17T01:36:49.554Z,64.60
2023-02-17T01:37:52.047Z,66.35
2023-02-17T01:38:54.834Z,69.75
2023-02-17T01:39:57.295Z,68.45
2023-02-17T01:41:00.107Z,59.67
2023-02-17T01:42:02.572Z,63.35
2023-02-17T01:43:10.024Z,63.97
2023-02-17T01:44:23.265Z,63.17
2023-02-17T01:45:34.184Z,65.10
2023-02-17T01:46:37.135Z,73.22
2023-02-17T01:47:41.096Z,69.88
2023-02-17T01:48:46.250Z,63.80
2023-02-17T01:49:48.785Z,69.47
2023-02-17T01:50:56.269Z,61.92
2023-02-17T01:52:16.343Z,65.53
2023-02-17T01:53:31.183Z,72.65
2023-02-17T01:54:51.152Z,74.15
2023-02-17T01:55:54.078Z,64.95
2023-02-17T01:56:57.982Z,61.35
2023-02-17T01:58:02.046Z,66.50
2023-02-17T01:59:11.234Z,67.10
2023-02-17T02:00:14.990Z,69.53
2023-02-17T02:01:18.118Z,66.53
2023-02-17T02:02:21.130Z,59.35
2023-02-17T02:03:23.901Z,69.05
2023-02-17T02:04:31.634Z,69.75
2023-02-17T02:05:36.606Z,69.85
2023-02-17T02:06:41.545Z,69.72
2023-02-17T02:07:44.526Z,72.03
2023-02-17T02:09:05.176Z,66.30
2023-02-17T02:10:08.408Z,64.43
2023-02-17T02:11:10.958Z,70.32
2023-02-17T02:12:22.505Z,60.20
2023-02-17T02:13:25.014Z,70.85
2023-02-17T02:14:28.710Z,70.18
2023-02-17T02:15:40.859Z,71.57
2023-02-17T02:17:13.052Z,60.55
2023-02-17T02:18:22.345Z,60.67
2023-02-17T02:19:35.313Z,67.13
2023-02-17T02:21:16.044Z,73.25
2023-02-17T02:22:44.159Z,62.33
2023-02-17T02:24:01.593Z,63.85
2023-02-17T02:25:07.209Z,63.95
2023-02-17T02:26:41.338Z,71.55
2023-02-17T02:28:02.186Z,64.47
2023-02-17T02:29:29.594Z,65.93
2023-02-17T02:30:44.282Z,74.22
2023-02-17T02:32:23.710Z,66.65
2023-02-17T02:33:35.984Z,62.47
2023-02-17T02:34:46.682Z,72.85
2023-02-17T02:36:00.543Z,69.13
2023-02-17T02:37:14.682Z,67.53
2023-02-17T02:38:29.576Z,69.65
2023-02-17T02:39:38.187Z,69.70
2023-02-17T02:40:45.241Z,70.80
2023-02-17T02:41:59.644Z,75.82
2023-02-17T02:43:02.820Z,67.47
2023-02-17T02:44:07.580Z,72.72
2023-02-17T02:45:10.855Z,72.47
2023-02-17T02:46:13.359Z,73.05
2023-02-17T02:47:40.641Z,62.85
2023-02-17T02:48:43.247Z,68.10
2023-02-17T02:49:45.786Z,69.15
2023-02-17T02:51:28.947Z,76.55
2023-02-17T02:52:43.268Z,65.90
2023-02-17T02:53:48.735Z,71.28
2023-02-17T02:55:36.907Z,68.10
2023-02-17T02:57:07.226Z,75.90
2023-02-17T02:58:54.733Z,72.18
2023-02-17T03:00:01.015Z,65.35
2023-02-17T03:01:18.678Z,75.47
2023-02-17T03:02:35.550Z,69.57
2023-02-17T03:03:44.064Z,67.35
2023-02-17T03:05:05.147Z,63.45
2023-02-17T03:06:30.588Z,66.95
2023-02-17T03:07:41.191Z,66.13
2023-02-17T03:09:05.611Z,76.15
2023-02-17T03:10:08.370Z,73.45
2023-02-17T03:11:10.831Z,68.70
2023-02-17T03:12:13.417Z,71.68
2023-02-17T03:13:16.906Z,71.75
2023-02-17T03:14:21.340Z,69.97
2023-02-17T03:15:33.748Z,60.03
2023-02-17T03:16:38.542Z,67.82
2023-02-17T03:17:41.236Z,71.05
2023-02-17T03:18:43.836Z,67.32
2023-02-17T03:19:47.666Z,75.10
2023-02-17T03:20:55.236Z,63.05
2023-02-17T03:22:02.237Z,71.80
2023-02-17T03:23:05.903Z,69.20
2023-02-17T03:24:09.249Z,69.13
2023-02-17T03:25:11.889Z,60.92
2023-02-17T03:26:14.576Z,71.05
2023-02-17T03:27:17.185Z,72.03
2023-02-17T03:28:19.711Z,71.15
2023-02-17T03:29:22.960Z,66.25
2023-02-17T03:30:26.094Z,67.35
2023-02-17T03:31:30.695Z,68.47
2023-02-17T03:32:33.422Z,66.43
2023-02-17T03:33:35.848Z,64.55
2023-02-17T03:34:38.453Z,74.80
2023-02-17T03:35:41.078Z,66.65
2023-02-17T03:36:43.617Z,72.10
2023-02-17T03:37:46.036Z,69.43
2023-02-17T03:38:48.593Z,69.15
2023-02-17T03:39:50.999Z,63.83
2023-02-17T03:40:54.165Z,74.15
2023-02-17T03:41:56.688Z,64.72
2023-02-17T03:42:59.346Z,70.28
2023-02-17T03:44:01.924Z,68.97
2023-02-17T03:45:04.981Z,66.68
2023-02-17T03:46:12.517Z,63.65
2023-02-17T03:47:15.001Z,64.88
2023-02-17T03:48:17.420Z,69.50
2023-02-17T03:49:20.107Z,66.18
2023-02-17T03:50:22.662Z,68.95
2023-02-17T03:51:25.667Z,65.05
2023-02-17T03:52:28.183Z,72.38
2023-02-17T03:53:30.624Z,76.40
2023-02-17T03:54:33.411Z,67.78
2023-02-17T03:55:36.225Z,70.60
2023-02-17T03:56:38.874Z,61.92
2023-02-17T03:57:41.509Z,63.90
2023-02-17T03:58:44.279Z,66.72
2023-02-17T03:59:46.688Z,69.55
2023-02-17T04:00:49.238Z,61.35
2023-02-17T04:01:51.820Z,63.88
2023-02-17T04:02:54.303Z,66.78
2023-02-17T04:03:56.824Z,68.72
2023-02-17T04:04:59.291Z,68.00
2023-02-17T04:06:01.908Z,65.88
2023-02-17T04:07:04.675Z,66.70
2023-02-17T04:08:07.172Z,68.72
2023-02-17T04:09:09.594Z,62.03
2023-02-17T04:10:12.023Z,66.57
2023-02-17T04:11:15.000Z,57.92
2023-02-17T04:12:17.645Z,67.70
2023-02-17T04:13:20.303Z,65.82
2023-02-17T04:14:22.960Z,71.28
2023-02-17T04:15:25.594Z,63.70
2023-02-17T04:16:28.235Z,60.60
2023-02-17T04:17:30.718Z,60.10
2023-02-17T04:18:33.911Z,65.80
2023-02-17T04:19:36.514Z,70.05
2023-02-17T04:20:39.156Z,58.92
2023-02-17T04:21:41.646Z,59.25
2023-02-17T04:22:46.271Z,62.80
2023-02-17T04:23:48.837Z,63.58
2023-02-17T04:24:51.375Z,62.75
2023-02-17T04:25:53.912Z,61.75
2023-02-17T04:26:56.461Z,67.85
2023-02-17T04:27:58.941Z,69.30
2023-02-17T04:29:04.283Z,61.40
2023-02-17T04:30:07.554Z,60.42
2023-02-17T04:31:10.502Z,64.60
2023-02-17T04:32:12.906Z,63.50
2023-02-17T04:33:16.114Z,58.13
2023-02-17T04:34:18.529Z,65.40
2023-02-17T04:35:21.167Z,68.25
2023-02-17T04:36:23.767Z,63.13
2023-02-17T04:37:26.539Z,64.20
2023-02-17T04:38:30.657Z,65.35
2023-02-17T04:39:33.053Z,61.63
2023-02-17T04:40:35.488Z,67.78
2023-02-17T04:41:38.021Z,67.18
2023-02-17T04:42:40.534Z,65.30
2023-02-17T04:43:43.041Z,61.85
2023-02-17T04:44:45.443Z,63.92
2023-02-17T04:45:47.971Z,62.92
2023-02-17T04:46:50.484Z,56.53
2023-02-17T04:47:52.907Z,57.28
2023-02-17T04:48:55.748Z,61.63
2023-02-17T04:49:58.234Z,61.40
2023-02-17T04:51:00.710Z,64.20
2023-02-17T04:52:03.262Z,62.08
2023-02-17T04:53:05.867Z,64.72
2023-02-17T04:54:08.300Z,61.35
2023-02-17T04:55:11.371Z,66.00
2023-02-17T04:56:14.252Z,55.92
2023-02-17T04:57:16.761Z,64.55
2023-02-17T04:58:20.572Z,69.20
2023-02-17T04:59:25.493Z,63.05
2023-02-17T05:00:28.227Z,55.92
2023-02-17T05:01:30.774Z,61.72
2023-02-17T05:02:33.294Z,60.58
2023-02-17T05:03:36.061Z,68.35
2023-02-17T05:04:38.796Z,66.05
2023-02-17T05:05:41.504Z,62.25
2023-02-17T05:06:44.312Z,63.95
2023-02-17T05:07:47.358Z,60.53
2023-02-17T05:08:50.763Z,58.75
2023-02-17T05:09:54.409Z,61.30
2023-02-17T05:10:56.932Z,61.70
2023-02-17T05:11:59.561Z,66.95
2023-02-17T05:13:01.976Z,59.83
2023-02-17T05:14:04.536Z,65.25
2023-02-17T05:15:08.021Z,63.03
2023-02-17T05:16:10.524Z,60.45
2023-02-17T05:17:13.079Z,59.75
2023-02-17T05:18:15.823Z,58.97
2023-02-17T05:19:18.493Z,57.60
2023-02-17T05:20:21.074Z,59.60
2023-02-17T05:21:23.759Z,56.22
2023-02-17T05:22:26.936Z,61.78
2023-02-17T05:23:29.394Z,63.97
2023-02-17T05:24:32.125Z,57.83
2023-02-17T05:25:34.660Z,62.25
2023-02-17T05:26:37.077Z,58.33
2023-02-17T05:27:39.534Z,63.90
2023-02-17T05:28:42.303Z,59.75
2023-02-17T05:29:44.807Z,58.55
2023-02-17T05:30:49.460Z,56.65
2023-02-17T05:31:52.340Z,61.85
2023-02-17T05:32:55.064Z,60.55
2023-02-17T05:33:57.477Z,57.53
2023-02-17T05:34:59.981Z,63.97
2023-02-17T05:36:04.166Z,64.60
2023-02-17T05:37:06.857Z,59.75
2023-02-17T05:38:09.412Z,62.30
2023-02-17T05:39:12.784Z,61.70
2023-02-17T05:40:15.214Z,61.15
2023-02-17T05:41:18.585Z,58.67
2023-02-17T05:42:21.325Z,54.92
2023-02-17T05:43:23.790Z,60.83
2023-02-17T05:44:26.491Z,59.53
2023-02-17T05:45:29.133Z,57.70
2023-02-17T05:46:31.634Z,54.65
2023-02-17T05:47:35.594Z,58.63
2023-02-17T05:48:38.072Z,61.78
2023-02-17T05:49:40.642Z,54.65
2023-02-17T05:50:43.307Z,56.10
2023-02-17T05:51:45.883Z,63.08
2023-02-17T05:52:48.381Z,59.92
2023-02-17T05:53:51.286Z,56.90
2023-02-17T05:54:53.869Z,54.13
2023-02-17T05:55:56.428Z,57.10
2023-02-17T05:56:58.872Z,59.80
2023-02-17T05:58:01.506Z,60.88
2023-02-17T05:59:04.262Z,53.97
2023-02-17T06:00:07.433Z,56.97
2023-02-17T06:01:14.488Z,59.83
2023-02-17T06:02:16.973Z,61.03
2023-02-17T06:03:19.501Z,53.08
2023-02-17T06:04:22.272Z,56.58
2023-02-17T06:05:24.747Z,59.53
2023-02-17T06:06:27.501Z,53.33
2023-02-17T06:07:29.985Z,62.92
2023-02-17T06:08:32.573Z,58.15
2023-02-17T06:09:35.121Z,57.97
2023-02-17T06:10:37.855Z,64.63
2023-02-17T06:11:40.431Z,55.70
2023-02-17T06:12:42.967Z,56.88
2023-02-17T06:13:45.669Z,51.75
2023-02-17T06:14:48.156Z,53.85
2023-02-17T06:15:50.776Z,64.82
2023-02-17T06:16:53.828Z,56.20
2023-02-17T06:17:56.546Z,63.83
2023-02-17T06:19:00.472Z,54.95
2023-02-17T06:20:03.561Z,56.50
2023-02-17T06:21:06.316Z,58.22
2023-02-17T06:22:08.797Z,56.28
2023-02-17T06:23:11.725Z,56.30
2023-02-17T06:24:14.104Z,46.35
2023-02-17T06:25:16.718Z,56.67
2023-02-17T06:26:19.188Z,53.53
2023-02-17T06:27:21.913Z,53.20
2023-02-17T06:28:24.477Z,53.58
2023-02-17T06:29:27.767Z,66.63
2023-02-17T06:30:30.614Z,53.38
2023-02-17T06:31:33.426Z,60.17
2023-02-17T06:32:36.084Z,58.08
2023-02-17T06:33:38.566Z,59.20
2023-02-17T06:34:41.169Z,58.58
2023-02-17T06:35:47.586Z,50.53
2023-02-17T06:36:50.293Z,56.13
2023-02-17T06:37:53.215Z,53.80
2023-02-17T06:38:55.745Z,52.67
2023-02-17T06:39:58.364Z,51.42
2023-02-17T06:41:00.961Z,54.80
2023-02-17T06:42:03.630Z,55.95
2023-02-17T06:43:07.190Z,56.42
2023-02-17T06:44:09.830Z,57.90
2023-02-17T06:45:12.275Z,56.85
2023-02-17T06:46:14.788Z,52.50
2023-02-17T06:47:17.351Z,58.20
2023-02-17T06:48:19.831Z,54.80
2023-02-17T06:49:22.393Z,46.15
2023-02-17T06:50:24.962Z,58.80
2023-02-17T06:51:28.308Z,58.22
2023-02-17T06:52:30.917Z,54.45
2023-02-17T06:53:33.405Z,55.17
2023-02-17T06:54:35.962Z,52.00
2023-02-17T06:55:39.661Z,53.65
2023-02-17T06:56:42.228Z,52.65
2023-02-17T06:57:44.761Z,59.72
2023-02-17T06:58:47.556Z,53.47
2023-02-17T06:59:50.113Z,51.47
2023-02-17T07:00:52.669Z,56.33
2023-02-17T07:01:55.292Z,58.65
2023-02-17T07:02:57.915Z,53.75
2023-02-17T07:04:00.529Z,55.13
2023-02-17T07:05:03.033Z,46.85
2023-02-17T07:06:06.110Z,48.47
2023-02-17T07:07:08.947Z,48.15
2023-02-17T07:08:11.503Z,57.80
2023-02-17T07:09:14.116Z,51.10
2023-02-17T07:10:16.674Z,50.05
2023-02-17T07:11:19.423Z,53.47
2023-02-17T07:12:22.031Z,58.22
2023-02-17T07:13:24.573Z,47.10
2023-02-17T07:14:27.480Z,49.95
2023-02-17T07:15:29.926Z,54.92
2023-02-17T07:16:33.739Z,47.60
2023-02-17T07:17:36.403Z,55.35
2023-02-17T07:18:39.026Z,50.53
2023-02-17T07:19:41.500Z,47.95
2023-02-17T07:20:43.950Z,48.78
2023-02-17T07:21:46.733Z,53.03
2023-02-17T07:22:49.351Z,51.53
2023-02-17T07:23:51.932Z,52.13
2023-02-17T07:24:54.436Z,50.72
2023-02-17T07:25:57.019Z,54.42
2023-02-17T07:27:01.081Z,60.65
2023-02-17T07:28:03.569Z,51.30
2023-02-17T07:29:07.291Z,51.53
2023-02-17T07:30:10.132Z,51.53
2023-02-17T07:31:15.307Z,51.15
2023-02-17T07:32:17.865Z,52.25
2023-02-17T07:33:20.485Z,53.67
2023-02-17T07:34:22.975Z,49.03
2023-02-17T07:35:25.623Z,50.92
2023-02-17T07:36:28.526Z,57.90
2023-02-17T07:37:31.047Z,49.88
2023-02-17T07:38:33.597Z,50.95
2023-02-17T07:39:36.524Z,49.50
2023-02-17T07:40:39.555Z,50.13
2023-02-17T07:41:42.278Z,48.13
2023-02-17T07:42:45.431Z,51.70
2023-02-17T07:43:49.865Z,50.85
2023-02-17T07:44:52.507Z,58.38
2023-02-17T07:45:56.665Z,47.05
2023-02-17T07:47:01.041Z,48.75
2023-02-17T07:48:03.790Z,51.22
2023-02-17T07:49:06.364Z,49.78
2023-02-17T07:50:09.444Z,51.88
2023-02-17T07:51:14.011Z,49.22
2023-02-17T07:52:19.519Z,50.60
2023-02-17T07:53:22.170Z,52.03
2023-02-17T07:54:24.796Z,57.05
2023-02-17T07:55:27.310Z,46.55
2023-02-17T07:56:30.135Z,46.28
2023-02-17T07:57:32.686Z,54.17
2023-02-17T07:58:37.270Z,49.83
2023-02-17T07:59:39.697Z,51.25
2023-02-17T08:00:42.556Z,47.25
2023-02-17T08:01:45.100Z,53.53
2023-02-17T08:02:47.672Z,50.00
2023-02-17T08:03:51.325Z,55.60
2023-02-17T08:04:53.922Z,52.88
2023-02-17T08:05:56.384Z,49.92
2023-02-17T08:06:59.245Z,56.92
2023-02-17T08:08:20.237Z,53.58
2023-02-17T08:09:41.225Z,60.50
2023-02-17T08:12:23.122Z,54.08
2023-02-17T08:13:27.313Z,52.78
2023-02-17T08:14:31.472Z,51.88
2023-02-17T08:15:35.194Z,51.05
2023-02-17T08:16:37.829Z,54.08
2023-02-17T08:17:40.317Z,52.75
2023-02-17T08:18:42.869Z,46.17
2023-02-17T08:19:49.514Z,45.50
2023-02-17T08:20:53.044Z,53.35
2023-02-17T08:21:55.699Z,50.55
2023-02-17T08:22:58.161Z,50.63
2023-02-17T08:24:00.682Z,52.00
2023-02-17T08:25:05.693Z,52.85
2023-02-17T08:26:08.586Z,44.33
2023-02-17T08:27:11.300Z,47.63
2023-02-17T08:28:14.239Z,47.15
2023-02-17T08:29:17.081Z,53.25
2023-02-17T08:30:19.720Z,51.35
2023-02-17T08:31:28.262Z,54.25
2023-02-17T08:32:30.969Z,48.58
2023-02-17T08:33:33.423Z,47.40
2023-02-17T08:34:36.009Z,52.40
2023-02-17T08:35:38.449Z,46.05
2023-02-17T08:36:41.096Z,43.35
2023-02-17T08:37:43.585Z,50.08
2023-02-17T08:38:50.272Z,50.08
2023-02-17T08:39:53.339Z,45.80
2023-02-17T08:40:55.863Z,49.28
2023-02-17T08:41:58.367Z,49.63
2023-02-17T08:43:03.389Z,45.20
2023-02-17T08:44:12.354Z,47.22
2023-02-17T08:45:15.710Z,43.22
2023-02-17T08:46:21.205Z,51.58
2023-02-17T08:47:23.615Z,45.67
2023-02-17T08:48:26.204Z,44.95
2023-02-17T08:49:30.133Z,41.53
2023-02-17T08:50:33.661Z,46.42
2023-02-17T08:51:36.850Z,48.45
2023-02-17T08:52:39.449Z,47.63
2023-02-17T08:53:42.733Z,46.58
2023-02-17T08:54:45.781Z,48.95
2023-02-17T08:55:49.744Z,46.97
2023-02-17T08:56:52.563Z,50.92
2023-02-17T08:57:55.058Z,49.00
2023-02-17T08:58:57.737Z,52.15
2023-02-17T09:00:00.297Z,43.75
2023-02-17T09:01:03.646Z,43.95
2023-02-17T09:02:06.605Z,42.75
2023-02-17T09:03:10.322Z,48.08
2023-02-17T09:04:14.423Z,43.00
2023-02-17T09:05:17.040Z,47.78
2023-02-17T09:06:21.415Z,44.17
2023-02-17T09:07:23.980Z,46.70
2023-02-17T09:08:27.022Z,41.58
2023-02-17T09:09:29.721Z,46.38
2023-02-17T09:10:32.249Z,41.45
2023-02-17T09:11:35.082Z,43.83
2023-02-17T09:12:37.693Z,45.63
2023-02-17T09:13:40.120Z,45.03
2023-02-17T09:14:42.695Z,44.20
2023-02-17T09:15:45.458Z,41.47
2023-02-17T09:16:47.953Z,42.80
2023-02-17T09:17:50.443Z,45.85
2023-02-17T09:18:53.993Z,42.38
2023-02-17T09:19:56.538Z,38.90
2023-02-17T09:21:00.607Z,42.88
2023-02-17T09:22:03.211Z,42.40
2023-02-17T09:23:06.566Z,38.30
2023-02-17T09:24:09.211Z,42.22
2023-02-17T09:25:11.927Z,44.45
2023-02-17T09:26:16.513Z,43.05
2023-02-17T09:27:19.406Z,44.33
2023-02-17T09:28:21.914Z,42.85
2023-02-17T09:29:24.456Z,38.65
2023-02-17T09:30:27.508Z,42.28
2023-02-17T09:31:30.979Z,45.65
2023-02-17T09:32:33.745Z,45.17
2023-02-17T09:33:36.622Z,37.72
2023-02-17T09:34:40.246Z,44.08
2023-02-17T09:35:42.821Z,46.30
2023-02-17T09:36:45.645Z,43.83
2023-02-17T09:37:48.215Z,42.03
2023-02-17T09:38:51.160Z,47.15
2023-02-17T09:39:53.701Z,44.63
2023-02-17T09:41:03.132Z,50.65
2023-02-17T09:42:06.278Z,43.72
2023-02-17T09:43:16.829Z,37.70
2023-02-17T09:44:26.523Z,41.55
2023-02-17T09:45:34.224Z,43.38
2023-02-17T09:47:00.880Z,44.42
2023-02-17T09:48:10.576Z,43.28
2023-02-17T09:49:16.298Z,47.85
2023-02-17T09:50:44.085Z,44.10
2023-02-17T09:51:59.081Z,44.40
2023-02-17T09:53:10.295Z,43.00
2023-02-17T09:54:37.629Z,41.10
2023-02-17T09:55:44.214Z,43.50
2023-02-17T09:56:49.124Z,44.78
2023-02-17T09:58:09.505Z,43.45
2023-02-17T09:59:27.293Z,45.50
2023-02-17T10:00:34.480Z,40.13
2023-02-17T10:01:37.126Z,47.92
2023-02-17T10:03:07.040Z,44.10
2023-02-17T10:04:17.435Z,42.92
2023-02-17T10:05:23.500Z,50.55
2023-02-17T10:06:33.484Z,47.70
2023-02-17T10:07:42.129Z,48.20
2023-02-17T10:09:01.666Z,40.63
2023-02-17T10:10:24.314Z,39.92
2023-02-17T10:11:40.419Z,43.25
2023-02-17T10:12:51.967Z,41.97
2023-02-17T10:13:59.209Z,47.60
2023-02-17T10:15:07.262Z,51.67
2023-02-17T10:16:16.262Z,40.10
2023-02-17T10:17:25.799Z,44.92
2023-02-17T10:18:58.714Z,39.60
2023-02-17T10:20:04.737Z,38.10
2023-02-17T10:21:13.427Z,42.78
2023-02-17T10:22:21.399Z,45.55
2023-02-17T10:23:26.208Z,38.88
2023-02-17T10:24:28.853Z,43.28
2023-02-17T10:25:41.985Z,36.95
2023-02-17T10:26:54.664Z,40.72
2023-02-17T10:28:09.574Z,46.85
2023-02-17T10:29:28.488Z,41.88
2023-02-17T10:30:57.713Z,45.92
2023-02-17T10:32:23.109Z,48.40
2023-02-17T10:33:50.674Z,42.40
2023-02-17T10:35:13.092Z,39.13
2023-02-17T10:36:41.298Z,46.50
2023-02-17T10:37:49.501Z,43.30
2023-02-17T10:38:54.110Z,41.13
2023-02-17T10:39:58.454Z,46.78
2023-02-17T10:41:02.678Z,45.67
2023-02-17T10:42:05.598Z,39.20
2023-02-17T10:43:10.187Z,43.20
2023-02-17T10:44:17.926Z,47.25
2023-02-17T10:45:31.123Z,45.63
2023-02-17T10:46:34.960Z,46.50
2023-02-17T10:47:39.918Z,34.08
2023-02-17T10:48:49.492Z,46.20
2023-02-17T10:49:53.906Z,42.72
2023-02-17T10:51:00.200Z,44.78
2023-02-17T10:52:16.912Z,48.08
2023-02-17T10:53:25.465Z,43.83
2023-02-17T10:54:37.585Z,44.28
2023-02-17T10:55:58.066Z,43.38
2023-02-17T10:57:01.767Z,41.63
2023-02-17T10:58:11.346Z,45.42
2023-02-17T10:59:30.680Z,42.20
2023-02-17T11:00:33.195Z,39.33
2023-02-17T11:01:36.927Z,44.38
2023-02-17T11:02:44.523Z,44.92
2023-02-17T11:03:47.262Z,42.15
2023-02-17T11:04:52.458Z,38.90
2023-02-17T11:06:05.789Z,40.42
2023-02-17T11:07:12.484Z,39.92
2023-02-17T11:08:31.916Z,45.08
2023-02-17T11:09:34.714Z,40.35
2023-02-17T11:10:40.735Z,39.35
2023-02-17T11:12:07.043Z,41.92
2023-02-17T11:13:46.306Z,42.47
2023-02-17T11:14:51.538Z,44.17
2023-02-17T11:15:54.139Z,44.33
2023-02-17T11:17:01.815Z,44.90
2023-02-17T11:18:12.008Z,42.90
2023-02-17T11:19:28.652Z,44.47
2023-02-17T11:20:33.915Z,42.47
2023-02-17T11:21:43.831Z,47.53
2023-02-17T11:22:49.149Z,37.05
2023-02-17T11:24:07.000Z,46.72
2023-02-17T11:25:34.684Z,42.33
2023-02-17T11:26:37.402Z,47.30
2023-02-17T11:27:39.907Z,38.47
2023-02-17T11:28:42.603Z,42.72
2023-02-17T11:29:45.126Z,36.60
2023-02-17T11:30:54.692Z,42.25
2023-02-17T11:32:01.315Z,43.08
2023-02-17T11:33:37.029Z,41.67
2023-02-17T11:34:41.694Z,45.90
2023-02-17T11:35:54.324Z,34.47
2023-02-17T11:37:21.606Z,37.75
2023-02-17T11:38:33.044Z,36.65
2023-02-17T11:39:46.882Z,38.50
2023-02-17T11:40:53.681Z,37.92
2023-02-17T11:41:57.699Z,41.78
2023-02-17T11:43:02.299Z,41.53
2023-02-17T11:44:05.156Z,40.03
2023-02-17T11:45:19.349Z,45.78
2023-02-17T11:46:58.712Z,34.65
2023-02-17T11:48:21.143Z,42.85
2023-02-17T11:49:35.940Z,43.92
2023-02-17T11:50:42.208Z,39.67
2023-02-17T11:51:56.167Z,40.45
2023-02-17T11:53:38.767Z,41.67
2023-02-17T11:54:50.508Z,42.58
2023-02-17T11:56:08.701Z,42.75
2023-02-17T11:57:28.610Z,46.42
2023-02-17T11:59:02.986Z,42.15
2023-02-17T12:00:25.767Z,41.90
2023-02-17T12:02:07.333Z,40.70
2023-02-17T12:03:18.624Z,42.90
2023-02-17T12:04:30.612Z,44.00
2023-02-17T12:05:38.957Z,44.72
2023-02-17T12:07:07.907Z,42.38
2023-02-17T12:08:32.692Z,44.63
2023-02-17T12:09:57.460Z,39.97
2023-02-17T12:11:29.760Z,37.17
2023-02-17T12:12:43.854Z,45.75
2023-02-17T12:13:56.028Z,48.53
2023-02-17T12:15:02.149Z,42.13
2023-02-17T12:16:10.990Z,42.53
2023-02-17T12:17:32.252Z,43.80
2023-02-17T12:18:51.499Z,36.15
2023-02-17T12:20:02.725Z,44.50
2023-02-17T12:21:44.295Z,39.00
2023-02-17T12:23:05.154Z,43.50
2023-02-17T12:25:27.055Z,44.97
2023-02-17T12:27:11.228Z,39.67
2023-02-17T12:28:43.366Z,46.03
2023-02-17T12:30:01.374Z,47.20
2023-02-17T12:31:11.409Z,45.17
2023-02-17T12:32:17.211Z,43.50
2023-02-17T12:33:26.560Z,45.38
2023-02-17T12:34:40.294Z,50.05
2023-02-17T12:35:53.171Z,49.15
2023-02-17T12:36:57.551Z,39.38
2023-02-17T12:38:03.495Z,42.35
2023-02-17T12:39:19.118Z,46.92
2023-02-17T12:40:51.216Z,43.55
2023-02-17T12:41:55.255Z,36.92
2023-02-17T12:43:02.034Z,42.25
2023-02-17T12:44:18.042Z,40.33
2023-02-17T12:45:24.614Z,39.35
2023-02-17T12:46:29.942Z,46.80
2023-02-17T12:47:54.536Z,37.78
2023-02-17T12:49:06.576Z,41.45
2023-02-17T12:50:30.327Z,42.10
2023-02-17T12:51:38.416Z,38.05
2023-02-17T12:52:42.922Z,35.28
2023-02-17T12:54:02.935Z,36.58
2023-02-17T12:55:13.766Z,36.42
2023-02-17T12:56:34.370Z,36.25
2023-02-17T12:57:58.503Z,35.20
2023-02-17T12:59:13.021Z,38.10
2023-02-17T13:00:22.192Z,41.97
2023-02-17T13:01:26.732Z,38.58
2023-02-17T13:02:30.850Z,39.45
2023-02-17T13:03:33.921Z,40.20
2023-02-17T13:04:36.856Z,41.45
2023-02-17T13:06:02.982Z,37.67
2023-02-17T13:07:23.077Z,36.67
2023-02-17T13:08:39.248Z,37.05
2023-02-17T13:09:43.189Z,35.53
2023-02-17T13:10:45.776Z,40.10
2023-02-17T13:11:48.874Z,39.78
2023-02-17T13:13:04.087Z,34.88
2023-02-17T13:14:25.739Z,37.22
2023-02-17T13:15:33.791Z,34.88
2023-02-17T13:16:46.124Z,35.53
2023-02-17T13:18:03.475Z,34.38
2023-02-17T13:19:09.274Z,35.05
2023-02-17T13:20:11.780Z,36.28
2023-02-17T13:21:25.086Z,34.13
2023-02-17T13:22:27.721Z,29.20
2023-02-17T13:23:35.147Z,34.58
2023-02-17T13:24:39.653Z,32.70
2023-02-17T13:25:42.390Z,31.17
2023-02-17T13:26:45.352Z,37.92
2023-02-17T13:27:47.846Z,31.83
2023-02-17T13:28:53.415Z,36.83
2023-02-17T13:30:11.359Z,31.60
2023-02-17T13:31:18.030Z,32.55
2023-02-17T13:32:28.653Z,31.08
2023-02-17T13:33:31.911Z,32.83
2023-02-17T13:34:36.364Z,34.85
2023-02-17T13:35:41.189Z,29.63
2023-02-17T13:36:43.827Z,33.05
2023-02-17T13:37:47.062Z,28.88
2023-02-17T13:38:57.563Z,30.73
2023-02-17T13:40:24.318Z,30.85
2023-02-17T13:41:28.369Z,32.30
2023-02-17T13:42:44.306Z,35.60
2023-02-17T13:43:46.958Z,33.72
2023-02-17T13:44:51.341Z,27.73
2023-02-17T13:45:58.305Z,29.05
2023-02-17T13:47:22.814Z,24.52
2023-02-17T13:48:27.868Z,28.95
2023-02-17T13:49:34.375Z,32.97
2023-02-17T13:50:42.673Z,32.65
2023-02-17T13:51:45.160Z,29.52
2023-02-17T13:52:47.672Z,30.00
2023-02-17T13:53:51.074Z,29.92
2023-02-17T13:54:56.058Z,32.70
2023-02-17T13:56:04.564Z,34.70
2023-02-17T13:57:21.433Z,31.38
2023-02-17T13:58:29.830Z,36.58
2023-02-17T13:59:32.498Z,32.80
2023-02-17T14:00:35.039Z,33.05
2023-02-17T14:01:41.959Z,32.55
2023-02-17T14:02:59.445Z,25.73
2023-02-17T14:04:02.044Z,29.58
2023-02-17T14:05:20.882Z,35.45
2023-02-17T14:06:40.962Z,33.90
2023-02-17T14:07:43.410Z,34.47
2023-02-17T14:08:45.965Z,31.85
2023-02-17T14:09:54.588Z,28.33
2023-02-17T14:10:57.954Z,29.52
2023-02-17T14:12:03.307Z,31.67
2023-02-17T14:13:10.609Z,31.05
2023-02-17T14:14:13.225Z,31.92
2023-02-17T14:15:17.804Z,34.50
2023-02-17T14:16:31.500Z,34.85
2023-02-17T14:17:34.146Z,29.98
2023-02-17T14:18:39.612Z,32.70
2023-02-17T14:19:47.875Z,30.85
2023-02-17T14:21:00.684Z,33.58
2023-02-17T14:22:05.487Z,35.35
2023-02-17T14:23:13.725Z,34.67